sensor_id;sensor_type;location;lat;lon;timestamp;P1;durP1;ratioP1;P2;durP2;ratioP2
66751;SDS011;53663;42.676;23.238;2023-06-26T00:00:14;17.10;;;12.93;;
66751;SDS011;53663;42.676;23.238;2023-06-26T00:02:40;16.65;;;12.55;;
66751;SDS011;53663;42.676;23.238;2023-06-26T00:05:06;19.42;;;12.50;;
66751;SDS011;53663;42.676;23.238;2023-06-26T00:07:32;16.08;;;13.10;;
66751;SDS011;53663;42.676;23.238;2023-06-26T00:10:02;14.73;;;11.27;;
66751;SDS011;53663;42.676;23.238;2023-06-26T00:12:28;19.08;;;12.55;;
66751;SDS011;53663;42.676;23.238;2023-06-26T00:14:54;16.73;;;12.05;;
66751;SDS011;53663;42.676;23.238;2023-06-26T00:17:19;18.67;;;12.65;;
66751;SDS011;53663;42.676;23.238;2023-06-26T00:19:45;14.05;;;11.35;;
66751;SDS011;53663;42.676;23.238;2023-06-26T00:22:11;15.43;;;11.85;;
66751;SDS011;53663;42.676;23.238;2023-06-26T00:24:37;20.10;;;11.68;;
66751;SDS011;53663;42.676;23.238;2023-06-26T00:27:02;19.35;;;11.52;;
66751;SDS011;53663;42.676;23.238;2023-06-26T00:29:28;15.32;;;11.13;;
66751;SDS011;53663;42.676;23.238;2023-06-26T00:31:53;15.93;;;10.80;;
66751;SDS011;53663;42.676;23.238;2023-06-26T00:34:19;16.75;;;10.68;;
66751;SDS011;53663;42.676;23.238;2023-06-26T00:36:45;15.82;;;10.68;;
66751;SDS011;53663;42.676;23.238;2023-06-26T00:39:11;14.05;;;10.25;;
66751;SDS011;53663;42.676;23.238;2023-06-26T00:41:37;15.15;;;10.75;;
66751;SDS011;53663;42.676;23.238;2023-06-26T00:44:03;15.05;;;10.45;;
66751;SDS011;53663;42.676;23.238;2023-06-26T00:46:30;13.90;;;10.27;;
66751;SDS011;53663;42.676;23.238;2023-06-26T00:48:56;20.35;;;10.40;;
66751;SDS011;53663;42.676;23.238;2023-06-26T00:51:25;14.68;;;9.82;;
66751;SDS011;53663;42.676;23.238;2023-06-26T00:53:51;15.20;;;10.27;;
66751;SDS011;53663;42.676;23.238;2023-06-26T00:56:17;15.23;;;10.65;;
66751;SDS011;53663;42.676;23.238;2023-06-26T00:58:44;18.48;;;10.05;;
66751;SDS011;53663;42.676;23.238;2023-06-26T01:01:10;14.60;;;9.77;;
66751;SDS011;53663;42.676;23.238;2023-06-26T01:03:42;14.00;;;10.25;;
66751;SDS011;53663;42.676;23.238;2023-06-26T01:06:09;14.60;;;9.98;;
66751;SDS011;53663;42.676;23.238;2023-06-26T01:08:38;14.48;;;10.07;;
66751;SDS011;53663;42.676;23.238;2023-06-26T01:11:04;14.57;;;10.02;;
66751;SDS011;53663;42.676;23.238;2023-06-26T01:13:30;14.75;;;9.73;;
66751;SDS011;53663;42.676;23.238;2023-06-26T01:15:57;13.82;;;10.30;;
66751;SDS011;53663;42.676;23.238;2023-06-26T01:18:24;14.40;;;10.15;;
66751;SDS011;53663;42.676;23.238;2023-06-26T01:20:51;15.48;;;10.18;;
66751;SDS011;53663;42.676;23.238;2023-06-26T01:23:20;14.98;;;10.20;;
66751;SDS011;53663;42.676;23.238;2023-06-26T01:28:45;14.73;;;10.68;;
66751;SDS011;53663;42.676;23.238;2023-06-26T01:31:12;15.82;;;10.70;;
66751;SDS011;53663;42.676;23.238;2023-06-26T01:33:39;15.25;;;10.35;;
66751;SDS011;53663;42.676;23.238;2023-06-26T01:36:06;16.30;;;11.27;;
66751;SDS011;53663;42.676;23.238;2023-06-26T01:38:34;17.42;;;11.10;;
66751;SDS011;53663;42.676;23.238;2023-06-26T01:41:00;13.45;;;11.02;;
66751;SDS011;53663;42.676;23.238;2023-06-26T01:46:30;15.85;;;10.40;;
66751;SDS011;53663;42.676;23.238;2023-06-26T01:51:42;17.48;;;10.32;;
66751;SDS011;53663;42.676;23.238;2023-06-26T01:54:16;18.45;;;11.63;;
66751;SDS011;53663;42.676;23.238;2023-06-26T01:56:44;14.88;;;11.27;;
66751;SDS011;53663;42.676;23.238;2023-06-26T01:59:13;16.95;;;10.82;;
66751;SDS011;53663;42.676;23.238;2023-06-26T02:01:40;14.55;;;11.20;;
66751;SDS011;53663;42.676;23.238;2023-06-26T02:04:05;16.20;;;10.88;;
66751;SDS011;53663;42.676;23.238;2023-06-26T02:06:31;13.45;;;10.27;;
66751;SDS011;53663;42.676;23.238;2023-06-26T02:08:58;14.18;;;11.10;;
66751;SDS011;53663;42.676;23.238;2023-06-26T02:11:23;14.98;;;10.68;;
66751;SDS011;53663;42.676;23.238;2023-06-26T02:13:49;17.35;;;12.25;;
66751;SDS011;53663;42.676;23.238;2023-06-26T02:16:15;19.17;;;11.60;;
66751;SDS011;53663;42.676;23.238;2023-06-26T02:18:41;15.80;;;12.30;;
66751;SDS011;53663;42.676;23.238;2023-06-26T02:21:07;20.23;;;12.13;;
66751;SDS011;53663;42.676;23.238;2023-06-26T02:23:34;14.68;;;12.10;;
66751;SDS011;53663;42.676;23.238;2023-06-26T02:26:00;16.25;;;12.10;;
66751;SDS011;53663;42.676;23.238;2023-06-26T02:28:25;17.05;;;11.57;;
66751;SDS011;53663;42.676;23.238;2023-06-26T02:30:51;16.05;;;11.68;;
66751;SDS011;53663;42.676;23.238;2023-06-26T02:33:16;20.23;;;12.00;;
66751;SDS011;53663;42.676;23.238;2023-06-26T02:35:42;16.30;;;12.77;;
66751;SDS011;53663;42.676;23.238;2023-06-26T02:38:09;15.60;;;12.60;;
66751;SDS011;53663;42.676;23.238;2023-06-26T02:40:35;16.33;;;12.45;;
66751;SDS011;53663;42.676;23.238;2023-06-26T02:43:01;20.88;;;12.52;;
66751;SDS011;53663;42.676;23.238;2023-06-26T02:45:27;15.38;;;12.50;;
66751;SDS011;53663;42.676;23.238;2023-06-26T02:47:53;17.85;;;12.70;;
66751;SDS011;53663;42.676;23.238;2023-06-26T02:50:19;17.08;;;12.98;;
66751;SDS011;53663;42.676;23.238;2023-06-26T02:53:04;17.40;;;13.18;;
66751;SDS011;53663;42.676;23.238;2023-06-26T02:55:30;16.33;;;12.50;;
66751;SDS011;53663;42.676;23.238;2023-06-26T02:57:56;17.40;;;13.25;;
66751;SDS011;53663;42.676;23.238;2023-06-26T03:00:22;17.55;;;12.85;;
66751;SDS011;53663;42.676;23.238;2023-06-26T03:02:50;21.02;;;14.48;;
66751;SDS011;53663;42.676;23.238;2023-06-26T03:05:18;19.75;;;13.23;;
66751;SDS011;53663;42.676;23.238;2023-06-26T03:07:43;19.73;;;13.50;;
66751;SDS011;53663;42.676;23.238;2023-06-26T03:10:09;19.83;;;13.70;;
66751;SDS011;53663;42.676;23.238;2023-06-26T03:12:35;24.95;;;15.10;;
66751;SDS011;53663;42.676;23.238;2023-06-26T03:15:00;15.88;;;14.13;;
66751;SDS011;53663;42.676;23.238;2023-06-26T03:17:26;18.23;;;13.68;;
66751;SDS011;53663;42.676;23.238;2023-06-26T03:19:56;21.10;;;14.75;;
66751;SDS011;53663;42.676;23.238;2023-06-26T03:22:27;19.15;;;15.25;;
66751;SDS011;53663;42.676;23.238;2023-06-26T03:24:53;19.13;;;14.77;;
66751;SDS011;53663;42.676;23.238;2023-06-26T03:27:18;17.58;;;14.27;;
66751;SDS011;53663;42.676;23.238;2023-06-26T03:29:44;19.25;;;14.75;;
66751;SDS011;53663;42.676;23.238;2023-06-26T03:32:10;20.63;;;14.75;;
66751;SDS011;53663;42.676;23.238;2023-06-26T03:34:36;21.27;;;14.35;;
66751;SDS011;53663;42.676;23.238;2023-06-26T03:37:02;18.25;;;14.60;;
66751;SDS011;53663;42.676;23.238;2023-06-26T03:39:27;17.38;;;14.13;;
66751;SDS011;53663;42.676;23.238;2023-06-26T03:41:53;17.10;;;14.18;;
66751;SDS011;53663;42.676;23.238;2023-06-26T03:44:22;16.52;;;13.80;;
66751;SDS011;53663;42.676;23.238;2023-06-26T03:46:48;18.70;;;14.48;;
66751;SDS011;53663;42.676;23.238;2023-06-26T03:49:13;18.25;;;13.23;;
66751;SDS011;53663;42.676;23.238;2023-06-26T03:51:39;18.80;;;13.77;;
66751;SDS011;53663;42.676;23.238;2023-06-26T03:54:04;16.80;;;14.00;;
66751;SDS011;53663;42.676;23.238;2023-06-26T03:56:30;16.13;;;13.65;;
66751;SDS011;53663;42.676;23.238;2023-06-26T03:58:56;20.02;;;13.48;;
66751;SDS011;53663;42.676;23.238;2023-06-26T04:01:21;18.15;;;13.75;;
66751;SDS011;53663;42.676;23.238;2023-06-26T04:03:48;18.35;;;13.02;;
66751;SDS011;53663;42.676;23.238;2023-06-26T04:06:13;15.80;;;13.32;;
66751;SDS011;53663;42.676;23.238;2023-06-26T04:08:39;19.42;;;13.27;;
66751;SDS011;53663;42.676;23.238;2023-06-26T04:11:05;19.38;;;12.80;;
66751;SDS011;53663;42.676;23.238;2023-06-26T04:13:30;16.42;;;13.55;;
66751;SDS011;53663;42.676;23.238;2023-06-26T04:15:56;17.35;;;12.35;;
66751;SDS011;53663;42.676;23.238;2023-06-26T04:18:21;17.45;;;13.52;;
66751;SDS011;53663;42.676;23.238;2023-06-26T04:21:07;24.15;;;13.07;;
66751;SDS011;53663;42.676;23.238;2023-06-26T04:23:34;19.98;;;13.68;;
66751;SDS011;53663;42.676;23.238;2023-06-26T04:26:00;19.55;;;13.38;;
66751;SDS011;53663;42.676;23.238;2023-06-26T04:28:27;16.70;;;12.68;;
66751;SDS011;53663;42.676;23.238;2023-06-26T04:30:53;17.42;;;13.45;;
66751;SDS011;53663;42.676;23.238;2023-06-26T04:33:18;17.23;;;12.10;;
66751;SDS011;53663;42.676;23.238;2023-06-26T04:35:44;16.25;;;12.48;;
66751;SDS011;53663;42.676;23.238;2023-06-26T04:38:10;15.30;;;12.32;;
66751;SDS011;53663;42.676;23.238;2023-06-26T04:40:36;16.73;;;12.20;;
66751;SDS011;53663;42.676;23.238;2023-06-26T04:43:02;17.98;;;12.27;;
66751;SDS011;53663;42.676;23.238;2023-06-26T04:45:28;16.40;;;12.15;;
66751;SDS011;53663;42.676;23.238;2023-06-26T04:47:53;13.60;;;11.38;;
66751;SDS011;53663;42.676;23.238;2023-06-26T04:50:19;14.52;;;11.38;;
66751;SDS011;53663;42.676;23.238;2023-06-26T04:52:44;13.50;;;10.95;;
66751;SDS011;53663;42.676;23.238;2023-06-26T04:55:10;15.35;;;10.82;;
66751;SDS011;53663;42.676;23.238;2023-06-26T04:57:35;13.82;;;10.90;;
66751;SDS011;53663;42.676;23.238;2023-06-26T05:00:01;14.73;;;9.95;;
66751;SDS011;53663;42.676;23.238;2023-06-26T05:02:28;13.02;;;10.43;;
66751;SDS011;53663;42.676;23.238;2023-06-26T05:04:54;12.73;;;10.02;;
66751;SDS011;53663;42.676;23.238;2023-06-26T05:07:20;11.70;;;10.25;;
66751;SDS011;53663;42.676;23.238;2023-06-26T05:09:45;14.30;;;9.85;;
66751;SDS011;53663;42.676;23.238;2023-06-26T05:12:11;12.80;;;10.40;;
66751;SDS011;53663;42.676;23.238;2023-06-26T05:14:37;11.77;;;9.85;;
66751;SDS011;53663;42.676;23.238;2023-06-26T05:17:03;12.38;;;10.07;;
66751;SDS011;53663;42.676;23.238;2023-06-26T05:19:29;12.60;;;10.00;;
66751;SDS011;53663;42.676;23.238;2023-06-26T05:21:54;18.80;;;11.38;;
66751;SDS011;53663;42.676;23.238;2023-06-26T05:24:21;11.10;;;9.15;;
66751;SDS011;53663;42.676;23.238;2023-06-26T05:26:48;12.40;;;9.90;;
66751;SDS011;53663;42.676;23.238;2023-06-26T05:29:14;12.27;;;10.05;;
66751;SDS011;53663;42.676;23.238;2023-06-26T05:31:40;15.48;;;10.32;;
66751;SDS011;53663;42.676;23.238;2023-06-26T05:34:06;14.35;;;10.00;;
66751;SDS011;53663;42.676;23.238;2023-06-26T05:36:33;11.75;;;9.98;;
66751;SDS011;53663;42.676;23.238;2023-06-26T05:39:00;13.00;;;10.00;;
66751;SDS011;53663;42.676;23.238;2023-06-26T05:41:26;12.85;;;11.00;;
66751;SDS011;53663;42.676;23.238;2023-06-26T05:43:51;15.18;;;10.35;;
66751;SDS011;53663;42.676;23.238;2023-06-26T05:46:19;16.08;;;10.95;;
66751;SDS011;53663;42.676;23.238;2023-06-26T05:48:45;16.65;;;10.93;;
66751;SDS011;53663;42.676;23.238;2023-06-26T05:51:11;15.82;;;11.05;;
66751;SDS011;53663;42.676;23.238;2023-06-26T05:53:36;15.23;;;10.30;;
66751;SDS011;53663;42.676;23.238;2023-06-26T05:56:03;13.30;;;9.82;;
66751;SDS011;53663;42.676;23.238;2023-06-26T05:58:29;15.20;;;11.02;;
66751;SDS011;53663;42.676;23.238;2023-06-26T06:00:55;12.55;;;9.95;;
66751;SDS011;53663;42.676;23.238;2023-06-26T06:03:21;14.70;;;10.73;;
66751;SDS011;53663;42.676;23.238;2023-06-26T06:05:46;15.40;;;10.85;;
66751;SDS011;53663;42.676;23.238;2023-06-26T06:08:12;10.57;;;9.40;;
66751;SDS011;53663;42.676;23.238;2023-06-26T06:10:37;17.15;;;9.85;;
66751;SDS011;53663;42.676;23.238;2023-06-26T06:13:03;15.05;;;10.00;;
66751;SDS011;53663;42.676;23.238;2023-06-26T06:15:28;12.73;;;9.60;;
66751;SDS011;53663;42.676;23.238;2023-06-26T06:17:54;10.38;;;8.80;;
66751;SDS011;53663;42.676;23.238;2023-06-26T06:20:20;14.23;;;9.30;;
66751;SDS011;53663;42.676;23.238;2023-06-26T06:22:45;11.85;;;9.35;;
66751;SDS011;53663;42.676;23.238;2023-06-26T06:25:11;16.38;;;8.77;;
66751;SDS011;53663;42.676;23.238;2023-06-26T06:27:36;11.88;;;9.30;;
66751;SDS011;53663;42.676;23.238;2023-06-26T06:30:02;11.85;;;8.77;;
66751;SDS011;53663;42.676;23.238;2023-06-26T06:32:28;11.48;;;8.75;;
66751;SDS011;53663;42.676;23.238;2023-06-26T06:34:53;12.68;;;8.73;;
66751;SDS011;53663;42.676;23.238;2023-06-26T06:37:19;11.75;;;8.45;;
66751;SDS011;53663;42.676;23.238;2023-06-26T06:39:44;9.45;;;8.02;;
66751;SDS011;53663;42.676;23.238;2023-06-26T06:42:10;14.82;;;9.40;;
66751;SDS011;53663;42.676;23.238;2023-06-26T06:44:35;10.68;;;7.93;;
66751;SDS011;53663;42.676;23.238;2023-06-26T06:47:01;10.68;;;7.80;;
66751;SDS011;53663;42.676;23.238;2023-06-26T06:49:26;13.10;;;7.97;;
66751;SDS011;53663;42.676;23.238;2023-06-26T06:51:52;10.80;;;7.63;;
66751;SDS011;53663;42.676;23.238;2023-06-26T06:54:17;11.38;;;9.20;;
66751;SDS011;53663;42.676;23.238;2023-06-26T06:56:43;11.85;;;7.72;;
66751;SDS011;53663;42.676;23.238;2023-06-26T06:59:09;9.02;;;7.47;;
66751;SDS011;53663;42.676;23.238;2023-06-26T07:01:34;12.98;;;6.93;;
66751;SDS011;53663;42.676;23.238;2023-06-26T07:04:00;12.15;;;7.50;;
66751;SDS011;53663;42.676;23.238;2023-06-26T07:06:25;11.13;;;7.82;;
66751;SDS011;53663;42.676;23.238;2023-06-26T07:08:51;10.02;;;7.85;;
66751;SDS011;53663;42.676;23.238;2023-06-26T07:11:16;10.77;;;7.57;;
66751;SDS011;53663;42.676;23.238;2023-06-26T07:13:42;7.25;;;6.18;;
66751;SDS011;53663;42.676;23.238;2023-06-26T07:16:07;12.15;;;6.53;;
66751;SDS011;53663;42.676;23.238;2023-06-26T07:18:37;10.50;;;6.53;;
66751;SDS011;53663;42.676;23.238;2023-06-26T07:21:02;7.57;;;5.25;;
66751;SDS011;53663;42.676;23.238;2023-06-26T07:23:28;8.00;;;6.00;;
66751;SDS011;53663;42.676;23.238;2023-06-26T07:25:53;7.22;;;5.50;;
66751;SDS011;53663;42.676;23.238;2023-06-26T07:28:19;8.05;;;6.40;;
66751;SDS011;53663;42.676;23.238;2023-06-26T07:30:44;10.00;;;6.50;;
66751;SDS011;53663;42.676;23.238;2023-06-26T07:33:10;7.97;;;6.22;;
66751;SDS011;53663;42.676;23.238;2023-06-26T07:35:35;6.03;;;5.43;;
66751;SDS011;53663;42.676;23.238;2023-06-26T07:38:01;9.40;;;5.75;;
66751;SDS011;53663;42.676;23.238;2023-06-26T07:40:26;9.05;;;5.75;;
66751;SDS011;53663;42.676;23.238;2023-06-26T07:42:52;10.15;;;6.95;;
66751;SDS011;53663;42.676;23.238;2023-06-26T07:45:19;10.18;;;6.35;;
66751;SDS011;53663;42.676;23.238;2023-06-26T07:47:45;10.27;;;5.40;;
66751;SDS011;53663;42.676;23.238;2023-06-26T07:50:10;7.95;;;6.20;;
66751;SDS011;53663;42.676;23.238;2023-06-26T07:52:36;6.50;;;4.82;;
66751;SDS011;53663;42.676;23.238;2023-06-26T07:55:02;7.90;;;5.22;;
66751;SDS011;53663;42.676;23.238;2023-06-26T07:57:29;7.80;;;5.55;;
66751;SDS011;53663;42.676;23.238;2023-06-26T07:59:55;9.18;;;5.65;;
66751;SDS011;53663;42.676;23.238;2023-06-26T08:02:21;8.45;;;4.88;;
66751;SDS011;53663;42.676;23.238;2023-06-26T08:04:46;8.05;;;5.53;;
66751;SDS011;53663;42.676;23.238;2023-06-26T08:07:12;7.50;;;5.10;;
66751;SDS011;53663;42.676;23.238;2023-06-26T08:09:39;5.68;;;4.82;;
66751;SDS011;53663;42.676;23.238;2023-06-26T08:12:04;8.05;;;5.30;;
66751;SDS011;53663;42.676;23.238;2023-06-26T08:14:30;7.35;;;5.05;;
66751;SDS011;53663;42.676;23.238;2023-06-26T08:16:56;6.90;;;5.50;;
66751;SDS011;53663;42.676;23.238;2023-06-26T08:19:22;6.63;;;5.03;;
66751;SDS011;53663;42.676;23.238;2023-06-26T08:21:48;8.15;;;4.95;;
66751;SDS011;53663;42.676;23.238;2023-06-26T08:24:13;8.38;;;5.10;;
66751;SDS011;53663;42.676;23.238;2023-06-26T08:26:42;6.90;;;5.10;;
66751;SDS011;53663;42.676;23.238;2023-06-26T08:29:09;6.25;;;4.93;;
66751;SDS011;53663;42.676;23.238;2023-06-26T08:31:35;6.10;;;4.72;;
66751;SDS011;53663;42.676;23.238;2023-06-26T08:34:01;8.57;;;4.70;;
66751;SDS011;53663;42.676;23.238;2023-06-26T08:36:27;5.88;;;4.57;;
66751;SDS011;53663;42.676;23.238;2023-06-26T08:38:53;5.07;;;4.38;;
66751;SDS011;53663;42.676;23.238;2023-06-26T08:41:18;5.70;;;4.20;;
66751;SDS011;53663;42.676;23.238;2023-06-26T08:43:44;8.82;;;4.93;;
66751;SDS011;53663;42.676;23.238;2023-06-26T08:46:10;6.00;;;4.50;;
66751;SDS011;53663;42.676;23.238;2023-06-26T08:48:36;6.22;;;5.10;;
66751;SDS011;53663;42.676;23.238;2023-06-26T08:51:05;5.60;;;4.72;;
66751;SDS011;53663;42.676;23.238;2023-06-26T08:56:21;5.15;;;3.92;;
66751;SDS011;53663;42.676;23.238;2023-06-26T08:58:48;5.07;;;4.05;;
66751;SDS011;53663;42.676;23.238;2023-06-26T09:01:14;10.35;;;4.95;;
66751;SDS011;53663;42.676;23.238;2023-06-26T09:03:40;12.85;;;4.22;;
66751;SDS011;53663;42.676;23.238;2023-06-26T09:06:09;7.63;;;4.00;;
66751;SDS011;53663;42.676;23.238;2023-06-26T09:08:35;5.72;;;4.25;;
66751;SDS011;53663;42.676;23.238;2023-06-26T09:11:00;5.22;;;4.20;;
66751;SDS011;53663;42.676;23.238;2023-06-26T09:13:28;6.32;;;4.40;;
66751;SDS011;53663;42.676;23.238;2023-06-26T09:15:55;9.93;;;4.07;;
66751;SDS011;53663;42.676;23.238;2023-06-26T09:18:20;6.28;;;4.07;;
66751;SDS011;53663;42.676;23.238;2023-06-26T09:20:47;5.15;;;3.95;;
66751;SDS011;53663;42.676;23.238;2023-06-26T09:23:13;5.50;;;4.15;;
66751;SDS011;53663;42.676;23.238;2023-06-26T09:25:39;7.35;;;4.63;;
66751;SDS011;53663;42.676;23.238;2023-06-26T09:28:05;9.52;;;4.50;;
66751;SDS011;53663;42.676;23.238;2023-06-26T09:30:32;8.13;;;4.57;;
66751;SDS011;53663;42.676;23.238;2023-06-26T09:33:00;8.32;;;4.80;;
66751;SDS011;53663;42.676;23.238;2023-06-26T09:35:39;5.78;;;4.38;;
66751;SDS011;53663;42.676;23.238;2023-06-26T09:38:04;7.43;;;4.45;;
66751;SDS011;53663;42.676;23.238;2023-06-26T09:40:30;7.47;;;4.30;;
66751;SDS011;53663;42.676;23.238;2023-06-26T09:43:02;5.20;;;4.05;;
66751;SDS011;53663;42.676;23.238;2023-06-26T09:45:31;6.78;;;4.20;;
66751;SDS011;53663;42.676;23.238;2023-06-26T09:48:03;5.55;;;4.03;;
66751;SDS011;53663;42.676;23.238;2023-06-26T09:50:30;6.95;;;4.72;;
66751;SDS011;53663;42.676;23.238;2023-06-26T09:52:59;5.57;;;4.25;;
66751;SDS011;53663;42.676;23.238;2023-06-26T09:55:36;6.10;;;4.10;;
66751;SDS011;53663;42.676;23.238;2023-06-26T09:58:05;4.88;;;3.88;;
66751;SDS011;53663;42.676;23.238;2023-06-26T10:00:31;5.90;;;4.30;;
66751;SDS011;53663;42.676;23.238;2023-06-26T10:03:00;6.13;;;4.25;;
66751;SDS011;53663;42.676;23.238;2023-06-26T10:05:26;6.55;;;4.30;;
66751;SDS011;53663;42.676;23.238;2023-06-26T10:07:53;8.90;;;4.45;;
66751;SDS011;53663;42.676;23.238;2023-06-26T10:10:19;6.30;;;4.43;;
66751;SDS011;53663;42.676;23.238;2023-06-26T10:12:48;6.97;;;4.18;;
66751;SDS011;53663;42.676;23.238;2023-06-26T10:15:16;5.75;;;4.32;;
66751;SDS011;53663;42.676;23.238;2023-06-26T10:17:43;7.65;;;4.90;;
66751;SDS011;53663;42.676;23.238;2023-06-26T10:20:11;7.65;;;4.80;;
66751;SDS011;53663;42.676;23.238;2023-06-26T10:22:45;6.90;;;4.88;;
66751;SDS011;53663;42.676;23.238;2023-06-26T10:25:14;9.82;;;4.53;;
66751;SDS011;53663;42.676;23.238;2023-06-26T10:27:47;9.27;;;4.60;;
66751;SDS011;53663;42.676;23.238;2023-06-26T10:30:17;7.13;;;4.75;;
66751;SDS011;53663;42.676;23.238;2023-06-26T10:32:46;12.48;;;4.95;;
66751;SDS011;53663;42.676;23.238;2023-06-26T10:35:13;13.52;;;4.53;;
66751;SDS011;53663;42.676;23.238;2023-06-26T10:37:42;6.60;;;4.50;;
66751;SDS011;53663;42.676;23.238;2023-06-26T10:40:09;10.82;;;4.88;;
66751;SDS011;53663;42.676;23.238;2023-06-26T10:42:36;6.95;;;4.50;;
66751;SDS011;53663;42.676;23.238;2023-06-26T10:45:27;4.85;;;4.07;;
66751;SDS011;53663;42.676;23.238;2023-06-26T10:47:53;7.22;;;4.65;;
66751;SDS011;53663;42.676;23.238;2023-06-26T10:55:33;8.07;;;5.20;;
66751;SDS011;53663;42.676;23.238;2023-06-26T10:57:59;6.10;;;4.93;;
66751;SDS011;53663;42.676;23.238;2023-06-26T11:00:24;11.02;;;5.07;;
66751;SDS011;53663;42.676;23.238;2023-06-26T11:02:50;15.40;;;5.13;;
66751;SDS011;53663;42.676;23.238;2023-06-26T11:05:28;8.35;;;4.70;;
66751;SDS011;53663;42.676;23.238;2023-06-26T11:08:04;7.03;;;4.85;;
66751;SDS011;53663;42.676;23.238;2023-06-26T11:10:52;6.35;;;5.20;;
66751;SDS011;53663;42.676;23.238;2023-06-26T11:13:20;7.85;;;5.20;;
66751;SDS011;53663;42.676;23.238;2023-06-26T11:15:46;12.05;;;5.43;;
66751;SDS011;53663;42.676;23.238;2023-06-26T11:18:12;6.72;;;4.60;;
66751;SDS011;53663;42.676;23.238;2023-06-26T11:20:39;8.15;;;4.97;;
66751;SDS011;53663;42.676;23.238;2023-06-26T11:23:04;10.55;;;4.90;;
66751;SDS011;53663;42.676;23.238;2023-06-26T11:25:35;6.72;;;5.20;;
66751;SDS011;53663;42.676;23.238;2023-06-26T11:28:02;7.70;;;4.88;;
66751;SDS011;53663;42.676;23.238;2023-06-26T11:30:29;9.95;;;4.65;;
66751;SDS011;53663;42.676;23.238;2023-06-26T11:33:05;7.18;;;4.75;;
66751;SDS011;53663;42.676;23.238;2023-06-26T11:35:32;9.82;;;4.82;;
66751;SDS011;53663;42.676;23.238;2023-06-26T11:38:01;8.90;;;4.70;;
66751;SDS011;53663;42.676;23.238;2023-06-26T11:40:34;6.40;;;4.68;;
66751;SDS011;53663;42.676;23.238;2023-06-26T11:43:01;8.15;;;4.68;;
66751;SDS011;53663;42.676;23.238;2023-06-26T11:45:28;8.27;;;5.00;;
66751;SDS011;53663;42.676;23.238;2023-06-26T11:47:55;7.95;;;4.50;;
66751;SDS011;53663;42.676;23.238;2023-06-26T11:50:21;5.72;;;4.70;;
66751;SDS011;53663;42.676;23.238;2023-06-26T11:52:52;12.93;;;5.45;;
66751;SDS011;53663;42.676;23.238;2023-06-26T11:55:25;5.53;;;4.22;;
66751;SDS011;53663;42.676;23.238;2023-06-26T11:57:54;6.90;;;4.70;;
66751;SDS011;53663;42.676;23.238;2023-06-26T12:00:22;6.07;;;4.85;;
66751;SDS011;53663;42.676;23.238;2023-06-26T12:02:48;7.50;;;4.68;;
66751;SDS011;53663;42.676;23.238;2023-06-26T12:05:17;6.07;;;4.90;;
66751;SDS011;53663;42.676;23.238;2023-06-26T12:07:44;14.25;;;5.50;;
66751;SDS011;53663;42.676;23.238;2023-06-26T12:10:12;6.15;;;4.90;;
66751;SDS011;53663;42.676;23.238;2023-06-26T12:12:39;7.32;;;4.50;;
66751;SDS011;53663;42.676;23.238;2023-06-26T12:15:06;7.72;;;4.45;;
66751;SDS011;53663;42.676;23.238;2023-06-26T12:17:32;11.07;;;4.78;;
66751;SDS011;53663;42.676;23.238;2023-06-26T12:19:58;9.00;;;4.50;;
66751;SDS011;53663;42.676;23.238;2023-06-26T12:22:24;5.30;;;4.35;;
66751;SDS011;53663;42.676;23.238;2023-06-26T12:24:59;12.52;;;4.90;;
66751;SDS011;53663;42.676;23.238;2023-06-26T12:27:25;9.35;;;5.00;;
66751;SDS011;53663;42.676;23.238;2023-06-26T12:29:53;7.40;;;4.47;;
66751;SDS011;53663;42.676;23.238;2023-06-26T12:32:21;7.93;;;4.65;;
66751;SDS011;53663;42.676;23.238;2023-06-26T12:34:51;6.50;;;5.18;;
66751;SDS011;53663;42.676;23.238;2023-06-26T12:37:16;7.72;;;5.07;;
66751;SDS011;53663;42.676;23.238;2023-06-26T12:39:46;6.47;;;4.95;;
66751;SDS011;53663;42.676;23.238;2023-06-26T12:42:13;8.40;;;4.93;;
66751;SDS011;53663;42.676;23.238;2023-06-26T12:44:40;8.73;;;4.82;;
66751;SDS011;53663;42.676;23.238;2023-06-26T12:47:06;7.43;;;4.80;;
66751;SDS011;53663;42.676;23.238;2023-06-26T12:51:59;6.60;;;4.50;;
66751;SDS011;53663;42.676;23.238;2023-06-26T12:54:26;9.13;;;4.90;;
66751;SDS011;53663;42.676;23.238;2023-06-26T12:56:52;7.18;;;4.45;;
66751;SDS011;53663;42.676;23.238;2023-06-26T12:59:17;7.82;;;4.63;;
66751;SDS011;53663;42.676;23.238;2023-06-26T13:01:43;8.43;;;4.63;;
66751;SDS011;53663;42.676;23.238;2023-06-26T13:04:08;6.50;;;4.88;;
66751;SDS011;53663;42.676;23.238;2023-06-26T13:06:35;6.50;;;4.88;;
66751;SDS011;53663;42.676;23.238;2023-06-26T13:09:01;8.15;;;4.45;;
66751;SDS011;53663;42.676;23.238;2023-06-26T13:11:30;12.25;;;5.35;;
66751;SDS011;53663;42.676;23.238;2023-06-26T13:13:56;10.02;;;4.95;;
66751;SDS011;53663;42.676;23.238;2023-06-26T13:16:22;7.97;;;4.90;;
66751;SDS011;53663;42.676;23.238;2023-06-26T13:18:48;7.93;;;5.13;;
66751;SDS011;53663;42.676;23.238;2023-06-26T13:21:14;12.57;;;4.70;;
66751;SDS011;53663;42.676;23.238;2023-06-26T13:23:40;6.22;;;4.38;;
66751;SDS011;53663;42.676;23.238;2023-06-26T13:26:06;8.15;;;4.32;;
66751;SDS011;53663;42.676;23.238;2023-06-26T13:28:32;7.20;;;4.47;;
66751;SDS011;53663;42.676;23.238;2023-06-26T13:30:58;5.55;;;4.15;;
66751;SDS011;53663;42.676;23.238;2023-06-26T13:33:23;8.40;;;4.80;;
66751;SDS011;53663;42.676;23.238;2023-06-26T13:35:53;5.32;;;4.38;;
66751;SDS011;53663;42.676;23.238;2023-06-26T13:38:19;7.57;;;4.82;;
66751;SDS011;53663;42.676;23.238;2023-06-26T13:40:50;6.75;;;4.22;;
66751;SDS011;53663;42.676;23.238;2023-06-26T13:43:20;7.68;;;4.38;;
66751;SDS011;53663;42.676;23.238;2023-06-26T13:45:47;9.13;;;4.45;;
66751;SDS011;53663;42.676;23.238;2023-06-26T13:48:13;14.57;;;5.90;;
66751;SDS011;53663;42.676;23.238;2023-06-26T13:50:39;21.77;;;5.90;;
66751;SDS011;53663;42.676;23.238;2023-06-26T13:53:05;7.25;;;4.95;;
66751;SDS011;53663;42.676;23.238;2023-06-26T13:55:31;10.05;;;5.15;;
66751;SDS011;53663;42.676;23.238;2023-06-26T13:57:58;8.70;;;5.03;;
66751;SDS011;53663;42.676;23.238;2023-06-26T14:00:24;6.32;;;5.00;;
66751;SDS011;53663;42.676;23.238;2023-06-26T14:02:50;6.65;;;4.45;;
66751;SDS011;53663;42.676;23.238;2023-06-26T14:05:16;9.73;;;4.70;;
66751;SDS011;53663;42.676;23.238;2023-06-26T14:07:44;10.73;;;4.50;;
66751;SDS011;53663;42.676;23.238;2023-06-26T14:10:10;8.13;;;4.90;;
66751;SDS011;53663;42.676;23.238;2023-06-26T14:12:35;8.32;;;4.65;;
66751;SDS011;53663;42.676;23.238;2023-06-26T14:15:01;8.25;;;4.65;;
66751;SDS011;53663;42.676;23.238;2023-06-26T14:17:28;5.80;;;4.40;;
66751;SDS011;53663;42.676;23.238;2023-06-26T14:19:54;6.65;;;4.28;;
66751;SDS011;53663;42.676;23.238;2023-06-26T14:22:19;6.45;;;4.30;;
66751;SDS011;53663;42.676;23.238;2023-06-26T14:24:46;7.35;;;4.53;;
66751;SDS011;53663;42.676;23.238;2023-06-26T14:27:11;6.85;;;4.90;;
66751;SDS011;53663;42.676;23.238;2023-06-26T14:29:37;5.65;;;4.70;;
66751;SDS011;53663;42.676;23.238;2023-06-26T14:32:03;8.50;;;4.97;;
66751;SDS011;53663;42.676;23.238;2023-06-26T14:34:29;8.52;;;4.55;;
66751;SDS011;53663;42.676;23.238;2023-06-26T14:36:54;6.78;;;4.95;;